ADDS METAR Data INFO
IDs: Format: Raw Decoded Include TAF

Data at: 0503 UTC 21 Feb 2018

KMDW 201510Z 20013G22KT 10SM SCT015 BKN055 OVC110 17/16 A2986 RMK AO2 T01670161
KMDW 201453Z 21014G20KT 10SM BKN015 BKN040 OVC065 17/16 A2986 RMK AO2 RAB24E46 SLP110 P0000 60021 T01670161 50007
KMDW 201353Z 21008KT 8SM FEW011 BKN016 OVC023 16/16 A2987 RMK AO2 RAE41 SLP112 P0009 T01560156
KMDW 201312Z 23011KT 6SM -RA BR SCT009 BKN023 OVC036 16/15 A2986 RMK AO2 P0003 T01560150
KMDW 201253Z 23012KT 3SM -RA BR BKN009 BKN019 OVC031 16/15 A2986 RMK AO2 SLP109 P0012 T01560150
KMDW 201218Z 24003KT 3SM -RA BR BKN006 OVC012 14/14 A2984 RMK AO2 P0006 T01440144
KMDW 201153Z 28005KT 4SM RA BR SCT008 BKN012 OVC019 14/14 A2984 RMK AO2 SLP103 P0034 60126 70194 T01440144 10161 20144 50008
KMDW 201136Z 21005KT 3SM +RA BR SCT015 BKN022 OVC028 14/14 A2983 RMK AO2 P0030 T01440144
KMDW 201053Z 23011KT 3SM +RA BR FEW015 BKN030 OVC050 15/14 A2985 RMK AO2 PRESRR SLP105 P0022 T01500144
KMDW 200953Z 23014G23KT 7SM -RA FEW015 BKN035 OVC070 16/15 A2983 RMK AO2 SLP098 P0013 T01610150
KMDW 200853Z 20010KT 5SM -RA BR FEW011 BKN022 OVC030 16/16 A2982 RMK AO2 SLP095 P0004 60057 T01560156 58003
KMDW 200753Z 19006KT 5SM -RA BR FEW009 BKN014 OVC023 15/15 A2983 RMK AO2 SLP099 P0017 T01500150
KMDW 200717Z 19007KT 4SM -RA BR FEW014 BKN019 OVC032 15/15 A2984 RMK AO2 P0008 T01500150
KMDW 200653Z 19008KT 4SM RA BR SCT023 BKN032 OVC045 15/15 A2983 RMK AO2 SLP101 P0036 T01500150
KMDW 200553Z 22013G23KT 4SM RA BR SCT023 BKN045 OVC070 16/14 A2983 RMK AO2 SLP100 P0010 60040 T01560144 10156 20139 401560039 53002
KMDW 200453Z 20010KT 9SM -RA SCT023 BKN065 OVC100 16/14 A2982 RMK AO2 LTG DSNT SE AND S TSB01E22 SLP100 OCNL LTGCC DSNT SE-SW P0006 T01560144
KMDW 200428Z 19012G21KT 6SM -RA BR SCT017 BKN045 OVC080 16/14 A2982 RMK AO2 LTG DSNT E-S TSB01E22 OCNL LTGCC DSNT SE-SW P0001 T01560144
KMDW 200402Z 19015G21KT 4SM -TSRA BR SCT017CB BKN046 OVC070 15/14 A2982 RMK AO2 LTG DSNT SE-SW TSB01 OCNL LTGCC VC SE TS VC SE MOV NE P0000 T01500144
KMDW 200353Z 18015KT 4SM -RA BR SCT017 BKN046 OVC070 15/14 A2982 RMK AO2 LTG DSNT SE AND S SLP097 P0021 T01500144
KMDW 200337Z 19015G24KT 3SM RA BR SCT011 BKN035 OVC060 15/14 A2983 RMK AO2 LTG DSNT SE AND S P0017 T01500139
KMDW 200326Z 20017G25KT 2 1/2SM RA BR SCT011 BKN035 OVC060 15/14 A2983 RMK AO2 LTG DSNT S VIS W 3 P0013 T01500139
KMDW 200253Z 19015G22KT 7SM -RA SCT011 BKN038 OVC060 14/13 A2982 RMK AO2 RAB0154 SLP100 P0002 60003 T01440133 50001
KMDW 200153Z COR 19012G21KT 7SM -RA BKN011 OVC095 14/13 A2983 RMK AO2 RAB27E51 SLP102 P0001 T01440133
KMDW 200053Z 20015G23KT 7SM OVC009 14/13 A2984 RMK AO2 RAE32 SLP105 P0000 T01440133
KMDW 192353Z 20013G19KT 6SM -RA BR OVC008 14/13 A2982 RMK AO2 SLP099 P0001 60002 T01390128 10139 20089 51010
KMDW 192319Z 20012KT 8SM -RA OVC008 14/13 A2982 RMK AO2 P0000 T01390128
KMDW 192253Z 20012G21KT 10SM -RA SCT008 OVC012 14/13 A2981 RMK AO2 SLP097 P0000 T01390128
KMDW 192153Z 20013G20KT 10SM -RA SCT008 BKN014 OVC017 14/13 A2980 RMK AO2 RAB50 SLP096 P0000 T01390128
KMDW 192053Z 20012G19KT 10SM SCT008 BKN012 OVC019 13/13 A2979 RMK AO2 SLP089 60001 T01330128 55002
KMDW 192034Z 21010G22KT 10SM SCT008 BKN012 OVC021 13/13 A2978 RMK AO2 T01330128
KMDW 191953Z 21012G23KT 9SM BKN008 OVC013 13/12 A2976 RMK AO2 RAE10 SLP079 P0000 T01280122
KMDW 191922Z 20011KT 7SM OVC005 12/12 A2976 RMK AO2 RAE10 P0000 T01170117
KMDW 191853Z 20011G21KT 5SM -RA BR OVC004 11/11 A2977 RMK AO2 SLP085 P0001 T01110106
KMDW 191837Z 19008G16KT 6SM -RA BR OVC004 10/10 A2978 RMK AO2 P0000 T01000100
KMDW 191753Z 16007KT 3SM -RA BR BKN003 OVC009 09/09 A2979 RMK AO2 SLP093 P0007 60026 T00890089 10089 20044 58022